sensor_id;sensor_type;location;lat;lon;timestamp;pressure;altitude;pressure_sealevel;temperature;humidity
64192;BME280;50497;50.720;-2.084;2023-05-02T00:01:55;102482.59;;;9.74;100.00
64192;BME280;50497;50.720;-2.084;2023-05-02T00:04:32;102473.69;;;9.75;100.00
64192;BME280;50497;50.720;-2.084;2023-05-02T00:07:10;102476.38;;;9.73;100.00
64192;BME280;50497;50.720;-2.084;2023-05-02T00:09:49;102475.50;;;9.73;100.00
64192;BME280;50497;50.720;-2.084;2023-05-02T00:12:14;102480.13;;;9.63;100.00
64192;BME280;50497;50.720;-2.084;2023-05-02T00:14:46;102453.56;;;9.51;100.00
64192;BME280;50497;50.720;-2.084;2023-05-02T00:17:16;102470.34;;;9.60;100.00
64192;BME280;50497;50.720;-2.084;2023-05-02T00:19:45;102469.50;;;9.57;100.00
64192;BME280;50497;50.720;-2.084;2023-05-02T00:22:18;102452.72;;;9.49;100.00
64192;BME280;50497;50.720;-2.084;2023-05-02T00:24:47;102450.88;;;9.52;100.00
64192;BME280;50497;50.720;-2.084;2023-05-02T00:27:20;102447.34;;;9.50;100.00
64192;BME280;50497;50.720;-2.084;2023-05-02T00:29:52;102445.53;;;9.51;100.00
64192;BME280;50497;50.720;-2.084;2023-05-02T00:32:29;102448.19;;;9.54;100.00
64192;BME280;50497;50.720;-2.084;2023-05-02T00:34:59;102439.38;;;9.47;100.00
64192;BME280;50497;50.720;-2.084;2023-05-02T00:37:35;102448.38;;;9.41;100.00
64192;BME280;50497;50.720;-2.084;2023-05-02T00:40:06;102439.59;;;9.33;100.00
64192;BME280;50497;50.720;-2.084;2023-05-02T00:42:48;102446.66;;;9.36;100.00
64192;BME280;50497;50.720;-2.084;2023-05-02T00:45:20;102437.81;;;9.32;100.00
64192;BME280;50497;50.720;-2.084;2023-05-02T00:47:57;102437.78;;;9.35;100.00
64192;BME280;50497;50.720;-2.084;2023-05-02T00:50:30;102436.88;;;9.36;100.00
64192;BME280;50497;50.720;-2.084;2023-05-02T00:53:04;102452.03;;;9.34;100.00
64192;BME280;50497;50.720;-2.084;2023-05-02T00:55:45;102409.59;;;9.14;100.00
64192;BME280;50497;50.720;-2.084;2023-05-02T00:58:21;102433.41;;;9.30;100.00
64192;BME280;50497;50.720;-2.084;2023-05-02T01:10:00;102450.47;;;9.18;100.00
64192;BME280;50497;50.720;-2.084;2023-05-02T01:15:33;102461.19;;;9.16;100.00
64192;BME280;50497;50.720;-2.084;2023-05-02T01:18:13;102458.56;;;9.15;100.00
64192;BME280;50497;50.720;-2.084;2023-05-02T01:20:45;102459.50;;;9.09;100.00
64192;BME280;50497;50.720;-2.084;2023-05-02T01:24:04;102461.31;;;9.09;100.00
64192;BME280;50497;50.720;-2.084;2023-05-02T01:29:23;102452.47;;;9.03;100.00
64192;BME280;50497;50.720;-2.084;2023-05-02T01:31:59;102452.50;;;9.00;100.00
64192;BME280;50497;50.720;-2.084;2023-05-02T01:34:31;102457.94;;;8.94;100.00
64192;BME280;50497;50.720;-2.084;2023-05-02T01:37:02;102438.53;;;8.80;100.00
64192;BME280;50497;50.720;-2.084;2023-05-02T01:39:38;102453.66;;;8.79;100.00
64192;BME280;50497;50.720;-2.084;2023-05-02T01:42:12;102466.19;;;8.74;100.00
64192;BME280;50497;50.720;-2.084;2023-05-02T01:44:46;102459.16;;;8.68;100.00
64192;BME280;50497;50.720;-2.084;2023-05-02T01:47:14;102463.72;;;8.59;100.00
64192;BME280;50497;50.720;-2.084;2023-05-02T01:49:43;102461.22;;;8.43;100.00
64192;BME280;50497;50.720;-2.084;2023-05-02T01:52:11;102469.28;;;8.32;100.00
64192;BME280;50497;50.720;-2.084;2023-05-02T01:54:45;102467.63;;;8.21;100.00
64192;BME280;50497;50.720;-2.084;2023-05-02T01:57:20;102472.13;;;8.17;100.00
64192;BME280;50497;50.720;-2.084;2023-05-02T01:59:52;102470.34;;;8.14;100.00
64192;BME280;50497;50.720;-2.084;2023-05-02T02:02:25;102466.84;;;8.09;100.00
64192;BME280;50497;50.720;-2.084;2023-05-02T02:05:00;102458.03;;;8.00;100.00
64192;BME280;50497;50.720;-2.084;2023-05-02T02:07:35;102475.78;;;8.04;100.00
64192;BME280;50497;50.720;-2.084;2023-05-02T02:10:12;102482.91;;;8.02;100.00
64192;BME280;50497;50.720;-2.084;2023-05-02T02:13:05;102456.44;;;7.80;100.00
64192;BME280;50497;50.720;-2.084;2023-05-02T02:15:37;102489.22;;;7.91;100.00
64192;BME280;50497;50.720;-2.084;2023-05-02T02:18:28;102503.47;;;7.89;100.00
64192;BME280;50497;50.720;-2.084;2023-05-02T02:20:58;102503.50;;;7.81;100.00
64192;BME280;50497;50.720;-2.084;2023-05-02T02:23:27;102516.81;;;7.83;100.00
64192;BME280;50497;50.720;-2.084;2023-05-02T02:25:54;102514.16;;;7.81;100.00
64192;BME280;50497;50.720;-2.084;2023-05-02T02:28:26;102493.00;;;7.59;100.00
64192;BME280;50497;50.720;-2.084;2023-05-02T02:30:58;102517.75;;;7.77;100.00
64192;BME280;50497;50.720;-2.084;2023-05-02T02:33:30;102516.84;;;7.76;100.00
64192;BME280;50497;50.720;-2.084;2023-05-02T02:36:04;102531.94;;;7.79;100.00
64192;BME280;50497;50.720;-2.084;2023-05-02T02:38:57;102546.09;;;7.87;100.00
64192;BME280;50497;50.720;-2.084;2023-05-02T02:42:39;102552.28;;;7.92;100.00
64192;BME280;50497;50.720;-2.084;2023-05-02T02:44:46;102567.38;;;7.93;100.00
64192;BME280;50497;50.720;-2.084;2023-05-02T02:47:26;102575.31;;;8.01;100.00
64192;BME280;50497;50.720;-2.084;2023-05-02T02:52:35;102580.59;;;8.09;100.00
64192;BME280;50497;50.720;-2.084;2023-05-02T02:55:16;102579.66;;;8.13;100.00
64192;BME280;50497;50.720;-2.084;2023-05-02T02:57:57;102583.16;;;8.21;100.00
64192;BME280;50497;50.720;-2.084;2023-05-02T03:00:41;102551.19;;;8.15;100.00
64192;BME280;50497;50.720;-2.084;2023-05-02T03:03:08;102591.09;;;8.30;100.00
64192;BME280;50497;50.720;-2.084;2023-05-02T03:05:34;102591.94;;;8.36;100.00
64192;BME280;50497;50.720;-2.084;2023-05-02T03:08:04;102605.28;;;8.37;100.00
64192;BME280;50497;50.720;-2.084;2023-05-02T03:10:30;102603.47;;;8.38;100.00
64192;BME280;50497;50.720;-2.084;2023-05-02T03:12:59;102597.25;;;8.40;100.00
64192;BME280;50497;50.720;-2.084;2023-05-02T03:18:21;102603.50;;;8.35;100.00
64192;BME280;50497;50.720;-2.084;2023-05-02T03:20:47;102593.78;;;8.27;100.00
64192;BME280;50497;50.720;-2.084;2023-05-02T03:23:13;102599.97;;;8.34;100.00
64192;BME280;50497;50.720;-2.084;2023-05-02T03:25:42;102606.16;;;8.35;100.00
64192;BME280;50497;50.720;-2.084;2023-05-02T03:28:10;102606.25;;;8.28;100.00
64192;BME280;50497;50.720;-2.084;2023-05-02T03:30:40;102615.13;;;8.26;100.00
64192;BME280;50497;50.720;-2.084;2023-05-02T03:33:14;102606.34;;;8.13;100.00
64192;BME280;50497;50.720;-2.084;2023-05-02T03:35:44;102617.94;;;8.04;100.00
64192;BME280;50497;50.720;-2.084;2023-05-02T03:38:13;102620.66;;;7.96;100.00
64192;BME280;50497;50.720;-2.084;2023-05-02T03:40:43;102624.28;;;7.86;100.00
64192;BME280;50497;50.720;-2.084;2023-05-02T03:43:14;102623.44;;;7.80;100.00
64192;BME280;50497;50.720;-2.084;2023-05-02T03:45:45;102633.22;;;7.76;100.00
64192;BME280;50497;50.720;-2.084;2023-05-02T03:48:11;102645.63;;;7.80;100.00
64192;BME280;50497;50.720;-2.084;2023-05-02T03:50:41;102643.03;;;7.68;100.00
64192;BME280;50497;50.720;-2.084;2023-05-02T03:53:19;102636.84;;;7.61;100.00
64192;BME280;50497;50.720;-2.084;2023-05-02T03:55:54;102643.97;;;7.61;100.00
64192;BME280;50497;50.720;-2.084;2023-05-02T03:58:23;102607.66;;;7.38;100.00
64192;BME280;50497;50.720;-2.084;2023-05-02T04:00:58;102637.78;;;7.48;100.00
64192;BME280;50497;50.720;-2.084;2023-05-02T04:03:26;102639.59;;;7.41;100.00
64192;BME280;50497;50.720;-2.084;2023-05-02T04:05:53;102639.59;;;7.36;100.00
64192;BME280;50497;50.720;-2.084;2023-05-02T04:08:37;102625.44;;;7.24;100.00
64192;BME280;50497;50.720;-2.084;2023-05-02T04:11:07;102636.06;;;7.34;100.00
64192;BME280;50497;50.720;-2.084;2023-05-02T04:13:39;102611.31;;;7.06;100.00
64192;BME280;50497;50.720;-2.084;2023-05-02T04:16:17;102645.00;;;7.22;100.00
64192;BME280;50497;50.720;-2.084;2023-05-02T04:18:46;102619.28;;;7.06;100.00
64192;BME280;50497;50.720;-2.084;2023-05-02T04:21:23;102667.16;;;7.28;100.00
64192;BME280;50497;50.720;-2.084;2023-05-02T04:23:48;102672.47;;;7.31;100.00
64192;BME280;50497;50.720;-2.084;2023-05-02T04:26:22;102670.69;;;7.27;100.00
64192;BME280;50497;50.720;-2.084;2023-05-02T04:28:59;102673.38;;;7.24;100.00
64192;BME280;50497;50.720;-2.084;2023-05-02T04:31:39;102672.50;;;7.18;100.00
64192;BME280;50497;50.720;-2.084;2023-05-02T04:34:20;102681.34;;;7.27;100.00
64192;BME280;50497;50.720;-2.084;2023-05-02T04:37:00;102684.00;;;7.22;100.00
64192;BME280;50497;50.720;-2.084;2023-05-02T04:39:36;102688.47;;;7.25;100.00
64192;BME280;50497;50.720;-2.084;2023-05-02T04:42:12;102698.22;;;7.27;100.00
64192;BME280;50497;50.720;-2.084;2023-05-02T04:44:47;102702.66;;;7.22;100.00
64192;BME280;50497;50.720;-2.084;2023-05-02T04:47:21;102715.09;;;7.31;100.00
64192;BME280;50497;50.720;-2.084;2023-05-02T04:49:55;102722.16;;;7.39;100.00
64192;BME280;50497;50.720;-2.084;2023-05-02T04:52:40;102718.63;;;7.42;100.00
64192;BME280;50497;50.720;-2.084;2023-05-02T04:55:19;102724.78;;;7.50;100.00
64192;BME280;50497;50.720;-2.084;2023-05-02T04:57:52;102738.97;;;7.57;100.00
64192;BME280;50497;50.720;-2.084;2023-05-02T05:00:24;102763.84;;;7.61;100.00
64192;BME280;50497;50.720;-2.084;2023-05-02T05:02:53;102770.06;;;7.59;100.00
64192;BME280;50497;50.720;-2.084;2023-05-02T05:05:31;102769.16;;;7.62;100.00
64192;BME280;50497;50.720;-2.084;2023-05-02T05:08:14;102777.16;;;7.57;100.00
64192;BME280;50497;50.720;-2.084;2023-05-02T05:11:01;102786.03;;;7.59;100.00
64192;BME280;50497;50.720;-2.084;2023-05-02T05:13:45;102800.22;;;7.58;100.00
64192;BME280;50497;50.720;-2.084;2023-05-02T05:16:14;102809.13;;;7.64;100.00
64192;BME280;50497;50.720;-2.084;2023-05-02T05:18:41;102820.66;;;7.66;100.00
64192;BME280;50497;50.720;-2.084;2023-05-02T05:21:10;102818.00;;;7.63;100.00
64192;BME280;50497;50.720;-2.084;2023-05-02T05:23:36;102790.53;;;7.40;100.00
64192;BME280;50497;50.720;-2.084;2023-05-02T05:26:18;102826.00;;;7.59;100.00
64192;BME280;50497;50.720;-2.084;2023-05-02T05:28:56;102835.75;;;7.65;100.00
64192;BME280;50497;50.720;-2.084;2023-05-02T05:31:39;102851.72;;;7.73;100.00
64192;BME280;50497;50.720;-2.084;2023-05-02T05:34:15;102860.59;;;7.75;100.00
64192;BME280;50497;50.720;-2.084;2023-05-02T05:36:59;102859.72;;;7.81;100.00
64192;BME280;50497;50.720;-2.084;2023-05-02T05:39:39;102863.25;;;7.75;100.00
64192;BME280;50497;50.720;-2.084;2023-05-02T05:42:11;102873.91;;;7.86;100.00
64192;BME280;50497;50.720;-2.084;2023-05-02T05:44:43;102883.66;;;7.94;100.00
64192;BME280;50497;50.720;-2.084;2023-05-02T05:47:23;102879.22;;;8.00;100.00
64192;BME280;50497;50.720;-2.084;2023-05-02T05:49:58;102883.66;;;7.99;100.00
64192;BME280;50497;50.720;-2.084;2023-05-02T05:52:29;102889.88;;;8.06;100.00
64192;BME280;50497;50.720;-2.084;2023-05-02T05:54:55;102889.81;;;8.18;100.00
64192;BME280;50497;50.720;-2.084;2023-05-02T05:57:30;102891.59;;;8.28;100.00
64192;BME280;50497;50.720;-2.084;2023-05-02T06:00:02;102885.34;;;8.29;100.00
64192;BME280;50497;50.720;-2.084;2023-05-02T06:02:28;102886.22;;;8.38;100.00
64192;BME280;50497;50.720;-2.084;2023-05-02T06:04:56;102887.09;;;8.52;100.00
64192;BME280;50497;50.720;-2.084;2023-05-02T06:07:26;102892.41;;;8.52;100.00
64192;BME280;50497;50.720;-2.084;2023-05-02T06:09:56;102899.41;;;8.73;100.00
64192;BME280;50497;50.720;-2.084;2023-05-02T06:12:25;102878.09;;;8.72;100.00
64192;BME280;50497;50.720;-2.084;2023-05-02T06:15:01;102886.88;;;8.89;100.00
64192;BME280;50497;50.720;-2.084;2023-05-02T06:17:29;102874.38;;;8.97;100.00
64192;BME280;50497;50.720;-2.084;2023-05-02T06:20:00;102871.66;;;9.05;100.00
64192;BME280;50497;50.720;-2.084;2023-05-02T06:22:28;102862.72;;;9.11;100.00
64192;BME280;50497;50.720;-2.084;2023-05-02T06:24:57;102856.41;;;9.18;100.00
64192;BME280;50497;50.720;-2.084;2023-05-02T06:27:24;102837.69;;;9.22;100.00
64192;BME280;50497;50.720;-2.084;2023-05-02T06:29:56;102828.75;;;9.28;100.00
64192;BME280;50497;50.720;-2.084;2023-05-02T06:32:22;102780.78;;;9.16;100.00
64192;BME280;50497;50.720;-2.084;2023-05-02T06:34:51;102809.88;;;9.50;100.00
64192;BME280;50497;50.720;-2.084;2023-05-02T06:37:17;102789.28;;;9.58;100.00
64192;BME280;50497;50.720;-2.084;2023-05-02T06:39:46;102776.72;;;9.66;100.00
64192;BME280;50497;50.720;-2.084;2023-05-02T06:42:12;102761.53;;;9.71;100.00
64192;BME280;50497;50.720;-2.084;2023-05-02T06:44:46;102753.41;;;9.77;100.00
64192;BME280;50497;50.720;-2.084;2023-05-02T06:47:21;102733.66;;;9.89;100.00
64192;BME280;50497;50.720;-2.084;2023-05-02T06:49:52;102729.09;;;9.99;100.00
64192;BME280;50497;50.720;-2.084;2023-05-02T06:52:21;102722.69;;;10.11;100.00
64192;BME280;50497;50.720;-2.084;2023-05-02T06:54:52;102683.28;;;10.24;100.00
64192;BME280;50497;50.720;-2.084;2023-05-02T06:57:18;102705.00;;;11.17;100.00
64192;BME280;50497;50.720;-2.084;2023-05-02T06:59:44;102693.63;;;11.50;100.00
64192;BME280;50497;50.720;-2.084;2023-05-02T07:02:16;102702.09;;;12.17;100.00
64192;BME280;50497;50.720;-2.084;2023-05-02T07:04:58;102710.88;;;12.61;100.00
64192;BME280;50497;50.720;-2.084;2023-05-02T07:07:29;102756.22;;;12.75;100.00
64192;BME280;50497;50.720;-2.084;2023-05-02T07:09:58;102810.72;;;12.39;100.00
64192;BME280;50497;50.720;-2.084;2023-05-02T07:12:30;102844.84;;;12.33;100.00
64192;BME280;50497;50.720;-2.084;2023-05-02T07:15:01;102878.44;;;12.10;100.00
64192;BME280;50497;50.720;-2.084;2023-05-02T07:17:30;102901.78;;;12.91;100.00
64192;BME280;50497;50.720;-2.084;2023-05-02T07:19:56;102938.63;;;13.98;100.00
64192;BME280;50497;50.720;-2.084;2023-05-02T07:22:22;102991.97;;;14.17;100.00
64192;BME280;50497;50.720;-2.084;2023-05-02T07:25:01;103042.38;;;14.46;100.00
64192;BME280;50497;50.720;-2.084;2023-05-02T07:27:31;103072.13;;;14.76;100.00
64192;BME280;50497;50.720;-2.084;2023-05-02T07:29:56;103145.22;;;14.62;100.00
64192;BME280;50497;50.720;-2.084;2023-05-02T07:32:25;103135.31;;;15.28;100.00
64192;BME280;50497;50.720;-2.084;2023-05-02T07:35:06;103178.66;;;14.53;100.00
64192;BME280;50497;50.720;-2.084;2023-05-02T07:37:36;103131.84;;;15.25;100.00
64192;BME280;50497;50.720;-2.084;2023-05-02T07:40:11;103113.53;;;14.72;100.00
64192;BME280;50497;50.720;-2.084;2023-05-02T07:42:42;103081.88;;;14.80;100.00
64192;BME280;50497;50.720;-2.084;2023-05-02T07:45:09;103075.97;;;15.88;100.00
64192;BME280;50497;50.720;-2.084;2023-05-02T07:47:44;103083.69;;;13.72;100.00
64192;BME280;50497;50.720;-2.084;2023-05-02T07:50:14;103023.22;;;14.22;100.00
64192;BME280;50497;50.720;-2.084;2023-05-02T07:52:40;103059.25;;;15.17;100.00
64192;BME280;50497;50.720;-2.084;2023-05-02T07:55:10;103063.63;;;14.90;100.00
64192;BME280;50497;50.720;-2.084;2023-05-02T07:57:49;103051.06;;;15.20;100.00
64192;BME280;50497;50.720;-2.084;2023-05-02T08:00:20;103061.03;;;14.52;100.00
64192;BME280;50497;50.720;-2.084;2023-05-02T08:02:46;103053.38;;;13.65;100.00
64192;BME280;50497;50.720;-2.084;2023-05-02T08:05:12;103031.31;;;14.55;100.00
64192;BME280;50497;50.720;-2.084;2023-05-02T08:07:39;103018.72;;;14.89;100.00
64192;BME280;50497;50.720;-2.084;2023-05-02T08:10:12;103028.94;;;15.09;100.00
64192;BME280;50497;50.720;-2.084;2023-05-02T08:12:40;103039.78;;;14.76;100.00
64192;BME280;50497;50.720;-2.084;2023-05-02T08:15:07;103024.06;;;13.53;100.00
64192;BME280;50497;50.720;-2.084;2023-05-02T08:17:33;103009.78;;;13.49;100.00
64192;BME280;50497;50.720;-2.084;2023-05-02T08:19:59;102973.09;;;13.48;100.00
64192;BME280;50497;50.720;-2.084;2023-05-02T08:22:29;103010.19;;;12.90;100.00
64192;BME280;50497;50.720;-2.084;2023-05-02T08:24:55;102963.06;;;12.73;100.00
64192;BME280;50497;50.720;-2.084;2023-05-02T08:27:21;102979.47;;;13.02;100.00
64192;BME280;50497;50.720;-2.084;2023-05-02T08:29:48;102976.84;;;12.99;100.00
64192;BME280;50497;50.720;-2.084;2023-05-02T08:32:20;102980.56;;;13.35;100.00
64192;BME280;50497;50.720;-2.084;2023-05-02T08:34:46;102977.97;;;13.29;100.00
64192;BME280;50497;50.720;-2.084;2023-05-02T08:37:12;102981.72;;;13.22;100.00
64192;BME280;50497;50.720;-2.084;2023-05-02T08:39:37;102912.69;;;12.83;100.00
64192;BME280;50497;50.720;-2.084;2023-05-02T08:42:06;102964.59;;;12.85;100.00
64192;BME280;50497;50.720;-2.084;2023-05-02T08:44:32;102956.28;;;12.96;100.00
64192;BME280;50497;50.720;-2.084;2023-05-02T08:47:00;102932.97;;;12.56;100.00
64192;BME280;50497;50.720;-2.084;2023-05-02T08:49:28;102928.72;;;12.88;100.00
64192;BME280;50497;50.720;-2.084;2023-05-02T08:51:56;102926.25;;;12.79;100.00
64192;BME280;50497;50.720;-2.084;2023-05-02T08:54:25;102908.09;;;12.90;100.00
64192;BME280;50497;50.720;-2.084;2023-05-02T08:56:55;102915.34;;;12.85;100.00
64192;BME280;50497;50.720;-2.084;2023-05-02T08:59:21;102924.47;;;13.56;100.00
64192;BME280;50497;50.720;-2.084;2023-05-02T09:01:54;102955.84;;;14.57;100.00
64192;BME280;50497;50.720;-2.084;2023-05-02T09:04:24;102993.97;;;14.09;100.00
64192;BME280;50497;50.720;-2.084;2023-05-02T09:06:54;103007.91;;;14.26;100.00
64192;BME280;50497;50.720;-2.084;2023-05-02T09:09:24;102994.31;;;14.95;100.00
64192;BME280;50497;50.720;-2.084;2023-05-02T09:11:50;103031.00;;;14.69;100.00
64192;BME280;50497;50.720;-2.084;2023-05-02T09:14:19;103038.50;;;14.56;100.00
64192;BME280;50497;50.720;-2.084;2023-05-02T09:16:47;103045.78;;;14.86;100.00
64192;BME280;50497;50.720;-2.084;2023-05-02T09:19:22;103046.41;;;15.25;100.00
64192;BME280;50497;50.720;-2.084;2023-05-02T09:21:49;103063.72;;;15.18;100.00
64192;BME280;50497;50.720;-2.084;2023-05-02T09:24:19;103029.44;;;15.80;100.00
64192;BME280;50497;50.720;-2.084;2023-05-02T09:29:27;103058.09;;;16.12;100.00
64192;BME280;50497;50.720;-2.084;2023-05-02T09:31:58;103072.72;;;15.77;100.00
64192;BME280;50497;50.720;-2.084;2023-05-02T09:34:28;103070.88;;;15.79;100.00
64192;BME280;50497;50.720;-2.084;2023-05-02T09:36:57;103076.84;;;15.59;100.00
64192;BME280;50497;50.720;-2.084;2023-05-02T09:39:32;103041.59;;;15.65;100.00
64192;BME280;50497;50.720;-2.084;2023-05-02T09:42:12;103073.09;;;16.21;100.00
64192;BME280;50497;50.720;-2.084;2023-05-02T09:44:49;103067.13;;;16.11;100.00
64192;BME280;50497;50.720;-2.084;2023-05-02T09:47:23;103071.31;;;15.63;100.00
64192;BME280;50497;50.720;-2.084;2023-05-02T09:49:53;103060.22;;;16.54;100.00
64192;BME280;50497;50.720;-2.084;2023-05-02T09:52:23;103080.72;;;15.50;100.00
64192;BME280;50497;50.720;-2.084;2023-05-02T09:54:49;103056.88;;;15.94;100.00
64192;BME280;50497;50.720;-2.084;2023-05-02T09:57:20;103060.09;;;16.32;100.00
64192;BME280;50497;50.720;-2.084;2023-05-02T09:59:56;103067.72;;;16.96;100.00
64192;BME280;50497;50.720;-2.084;2023-05-02T10:02:29;103071.09;;;17.03;100.00
64192;BME280;50497;50.720;-2.084;2023-05-02T10:04:55;103076.28;;;17.09;100.00
64192;BME280;50497;50.720;-2.084;2023-05-02T10:07:22;103084.50;;;16.56;100.00
64192;BME280;50497;50.720;-2.084;2023-05-02T10:09:49;103076.50;;;16.53;100.00
64192;BME280;50497;50.720;-2.084;2023-05-02T10:12:23;103080.63;;;17.37;100.00
64192;BME280;50497;50.720;-2.084;2023-05-02T10:15:02;103075.00;;;17.43;100.00
64192;BME280;50497;50.720;-2.084;2023-05-02T10:17:39;103082.59;;;16.83;100.00
64192;BME280;50497;50.720;-2.084;2023-05-02T10:20:13;103084.91;;;16.95;100.00
64192;BME280;50497;50.720;-2.084;2023-05-02T10:22:48;103083.25;;;16.91;100.00
64192;BME280;50497;50.720;-2.084;2023-05-02T10:25:21;103080.63;;;17.13;100.00
64192;BME280;50497;50.720;-2.084;2023-05-02T10:27:51;103023.22;;;16.80;100.00
64192;BME280;50497;50.720;-2.084;2023-05-02T10:30:17;103081.31;;;16.43;100.00
64192;BME280;50497;50.720;-2.084;2023-05-02T10:32:43;103078.25;;;16.54;100.00
64192;BME280;50497;50.720;-2.084;2023-05-02T10:35:24;103062.47;;;16.67;100.00
64192;BME280;50497;50.720;-2.084;2023-05-02T10:37:51;103071.38;;;16.95;100.00
64192;BME280;50497;50.720;-2.084;2023-05-02T10:40:22;103046.88;;;17.00;100.00
64192;BME280;50497;50.720;-2.084;2023-05-02T10:42:55;103061.81;;;17.10;100.00
64192;BME280;50497;50.720;-2.084;2023-05-02T10:45:33;103066.09;;;16.92;100.00
64192;BME280;50497;50.720;-2.084;2023-05-02T10:48:37;103076.03;;;17.39;100.00
64192;BME280;50497;50.720;-2.084;2023-05-02T10:51:06;103050.00;;;18.25;100.00
64192;BME280;50497;50.720;-2.084;2023-05-02T10:53:38;103070.13;;;19.01;100.00
64192;BME280;50497;50.720;-2.084;2023-05-02T10:56:32;103038.97;;;18.91;100.00
64192;BME280;50497;50.720;-2.084;2023-05-02T10:59:26;103001.41;;;18.41;100.00
64192;BME280;50497;50.720;-2.084;2023-05-02T11:01:52;102991.28;;;17.61;100.00
64192;BME280;50497;50.720;-2.084;2023-05-02T11:04:18;102957.91;;;19.41;100.00
64192;BME280;50497;50.720;-2.084;2023-05-02T11:09:31;102871.97;;;19.76;100.00
64192;BME280;50497;50.720;-2.084;2023-05-02T11:11:58;102816.75;;;19.58;100.00
64192;BME280;50497;50.720;-2.084;2023-05-02T11:19:26;102703.13;;;19.84;100.00
64192;BME280;50497;50.720;-2.084;2023-05-02T11:21:52;102396.03;;;19.87;100.00
64192;BME280;50497;50.720;-2.084;2023-05-02T11:24:41;102142.47;;;20.02;100.00
64192;BME280;50497;50.720;-2.084;2023-05-02T11:30:07;102084.63;;;20.00;100.00
64192;BME280;50497;50.720;-2.084;2023-05-02T11:37:58;102029.13;;;19.48;100.00
64192;BME280;50497;50.720;-2.084;2023-05-02T11:40:28;101979.16;;;19.24;100.00
64192;BME280;50497;50.720;-2.084;2023-05-02T11:42:55;101915.50;;;20.24;100.00
64192;BME280;50497;50.720;-2.084;2023-05-02T11:45:21;102071.06;;;18.85;100.00
64192;BME280;50497;50.720;-2.084;2023-05-02T11:47:53;102080.41;;;19.53;100.00
64192;BME280;50497;50.720;-2.084;2023-05-02T11:50:21;102119.59;;;19.34;100.00
64192;BME280;50497;50.720;-2.084;2023-05-02T11:52:47;102099.97;;;19.87;100.00
64192;BME280;50497;50.720;-2.084;2023-05-02T11:55:14;102149.44;;;20.06;100.00
64192;BME280;50497;50.720;-2.084;2023-05-02T11:57:47;102262.41;;;20.66;100.00
64192;BME280;50497;50.720;-2.084;2023-05-02T12:00:15;102361.66;;;20.45;100.00
64192;BME280;50497;50.720;-2.084;2023-05-02T12:02:43;102390.09;;;20.10;100.00
64192;BME280;50497;50.720;-2.084;2023-05-02T12:05:12;102360.78;;;19.09;100.00
64192;BME280;50497;50.720;-2.084;2023-05-02T12:07:42;102326.41;;;20.15;100.00
64192;BME280;50497;50.720;-2.084;2023-05-02T12:10:09;102310.19;;;19.99;100.00
64192;BME280;50497;50.720;-2.084;2023-05-02T12:12:37;102367.22;;;20.72;100.00
64192;BME280;50497;50.720;-2.084;2023-05-02T12:15:08;102384.13;;;21.19;100.00
64192;BME280;50497;50.720;-2.084;2023-05-02T12:17:40;102408.16;;;21.39;100.00
64192;BME280;50497;50.720;-2.084;2023-05-02T12:20:10;102407.28;;;20.97;100.00
64192;BME280;50497;50.720;-2.084;2023-05-02T12:22:38;102484.16;;;21.01;100.00
64192;BME280;50497;50.720;-2.084;2023-05-02T12:25:04;102462.19;;;20.61;100.00
64192;BME280;50497;50.720;-2.084;2023-05-02T12:27:34;102437.28;;;19.31;100.00
64192;BME280;50497;50.720;-2.084;2023-05-02T12:30:00;102352.31;;;20.06;100.00
64192;BME280;50497;50.720;-2.084;2023-05-02T12:32:27;102408.25;;;20.96;100.00
64192;BME280;50497;50.720;-2.084;2023-05-02T12:34:54;102476.00;;;19.97;100.00
64192;BME280;50497;50.720;-2.084;2023-05-02T12:37:24;102461.56;;;19.97;100.00
64192;BME280;50497;50.720;-2.084;2023-05-02T12:39:58;102411.00;;;19.48;100.00
64192;BME280;50497;50.720;-2.084;2023-05-02T12:42:28;102411.31;;;20.77;100.00
64192;BME280;50497;50.720;-2.084;2023-05-02T12:44:56;102496.53;;;19.71;100.00
64192;BME280;50497;50.720;-2.084;2023-05-02T12:47:22;102482.78;;;21.22;100.00
64192;BME280;50497;50.720;-2.084;2023-05-02T12:49:54;102479.88;;;22.07;100.00
64192;BME280;50497;50.720;-2.084;2023-05-02T12:55:24;102539.34;;;21.17;100.00
64192;BME280;50497;50.720;-2.084;2023-05-02T12:57:50;102562.66;;;20.02;100.00
64192;BME280;50497;50.720;-2.084;2023-05-02T13:00:16;102550.94;;;20.31;100.00
64192;BME280;50497;50.720;-2.084;2023-05-02T13:02:42;102523.16;;;19.48;100.00
64192;BME280;50497;50.720;-2.084;2023-05-02T13:05:14;102431.78;;;19.01;100.00
64192;BME280;50497;50.720;-2.084;2023-05-02T13:07:40;102350.91;;;20.29;100.00
64192;BME280;50497;50.720;-2.084;2023-05-02T13:10:05;102397.19;;;20.42;100.00
64192;BME280;50497;50.720;-2.084;2023-05-02T13:12:31;102314.13;;;19.79;100.00
64192;BME280;50497;50.720;-2.084;2023-05-02T13:14:56;102396.91;;;20.46;100.00
64192;BME280;50497;50.720;-2.084;2023-05-02T13:17:22;102388.97;;;19.68;100.00
64192;BME280;50497;50.720;-2.084;2023-05-02T13:19:47;102395.56;;;19.48;100.00
64192;BME280;50497;50.720;-2.084;2023-05-02T13:22:13;102361.75;;;20.58;100.00
64192;BME280;50497;50.720;-2.084;2023-05-02T13:24:39;102415.75;;;21.07;100.00
64192;BME280;50497;50.720;-2.084;2023-05-02T13:27:04;102382.91;;;20.09;100.00
64192;BME280;50497;50.720;-2.084;2023-05-02T13:29:30;102367.06;;;20.02;100.00
64192;BME280;50497;50.720;-2.084;2023-05-02T13:31:55;102318.72;;;19.32;100.00
64192;BME280;50497;50.720;-2.084;2023-05-02T13:34:21;102273.72;;;18.97;100.00
64192;BME280;50497;50.720;-2.084;2023-05-02T13:36:47;102115.41;;;19.29;100.00
64192;BME280;50497;50.720;-2.084;2023-05-02T13:39:12;102130.84;;;19.86;100.00
64192;BME280;50497;50.720;-2.084;2023-05-02T13:41:38;102146.91;;;19.74;100.00